Time;durP1;ratioP1;P1;durP2;ratioP2;P2;SDS_P1;SDS_P2;PMS_P1;PMS_P2;Temp;Humidity;BMP_temperature;BMP_pressure;BME280_temperature;BME280_humidity;BME280_pressure;Samples;Min_cycle;Max_cycle;Signal;HPM_P1;HPM_P2
2022/02/11 00:07:42;;;;;;;14.00;7.93;;;;;;;5.24;87.71;102233.50;5015054;28;20061;-62
2022/02/11 00:10:14;;;;;;;13.88;8.00;;;;;;;5.25;87.90;102239.75;5002514;28;20045;-63
2022/02/11 00:12:42;;;;;;;16.00;7.80;;;;;;;5.36;87.49;102238.91;5017241;28;20045;-64
2022/02/11 00:17:54;;;;;;;16.92;8.10;;;;;;;5.46;85.44;102244.59;5016262;28;20046;-62
2022/02/11 00:20:22;;;;;;;16.67;7.97;;;;;;;5.31;86.10;102238.81;4994230;28;20054;-63
2022/02/11 00:22:52;;;;;;;12.25;7.30;;;;;;;5.47;84.96;102238.06;5016614;28;20056;-63
2022/02/11 00:25:22;;;;;;;11.75;7.10;;;;;;;5.38;84.79;102239.50;5034439;28;20053;-63
2022/02/11 00:28:30;;;;;;;14.05;7.10;;;;;;;5.40;84.88;102251.88;5004670;28;20053;-63
2022/02/11 00:33:24;;;;;;;13.50;7.65;;;;;;;5.24;86.39;102249.88;5034389;28;20503;-63
2022/02/11 00:36:02;;;;;;;15.65;7.22;;;;;;;5.23;85.67;102247.41;5028371;28;20100;-64
2022/02/11 01:03:01;;;;;;;11.80;6.38;;;;;;;5.45;81.75;102262.06;5034297;28;20053;-63
2022/02/11 01:05:29;;;;;;;14.18;6.20;;;;;;;5.17;82.81;102259.28;5016977;28;20064;-64
2022/02/11 01:07:56;;;;;;;14.20;5.97;;;;;;;5.46;83.13;102256.34;5016649;28;20567;-62
2022/02/11 01:10:24;;;;;;;15.07;6.63;;;;;;;5.26;82.41;102264.13;5016462;28;20041;-62
2022/02/11 01:12:51;;;;;;;14.23;6.53;;;;;;;5.07;83.30;102259.06;5034288;28;20049;-63
2022/02/11 01:15:19;;;;;;;14.73;6.70;;;;;;;4.98;83.76;102265.94;5033799;28;20056;-62
2022/02/11 01:17:51;;;;;;;13.15;5.45;;;;;;;5.03;83.60;102266.06;5033723;28;20045;-62
2022/02/11 01:21:09;;;;;;;12.05;5.75;;;;;;;4.98;83.41;102276.88;5033356;28;20058;-64
2022/02/11 01:23:39;;;;;;;16.98;6.35;;;;;;;4.97;83.55;102272.50;5007569;28;20061;-63
2022/02/11 01:26:25;;;;;;;15.40;6.50;;;;;;;4.88;84.18;102272.00;5033823;28;20057;-63
2022/02/11 01:32:17;;;;;;;13.05;6.00;;;;;;;5.06;83.72;102279.22;4952410;28;20070;-62
2022/02/11 01:35:00;;;;;;;19.52;6.82;;;;;;;4.96;82.95;102287.19;5048718;28;20057;-62
2022/02/11 01:40:51;;;;;;;15.37;6.30;;;;;;;4.60;84.25;102291.81;5027389;28;20065;-62
2022/02/11 01:46:12;;;;;;;16.73;6.22;;;;;;;5.11;82.48;102284.81;5037362;28;20053;-63
2022/02/11 02:25:23;;;;;;;13.35;4.50;;;;;;;5.38;78.43;102324.22;5012944;28;20064;-63
2022/02/11 02:36:33;;;;;;;15.93;4.93;;;;;;;5.37;78.40;102330.75;5026194;28;20370;-61
2022/02/11 03:00:40;;;;;;;15.05;5.45;;;;;;;5.55;78.59;102339.63;5033221;28;20054;-62
2022/02/11 04:55:27;;;;;;;12.95;4.45;;;;;;;4.73;81.72;102472.78;5024592;28;20049;-62
2022/02/11 05:00:40;;;;;;;13.88;4.85;;;;;;;4.74;81.33;102485.38;5014842;28;20049;-62
2022/02/11 05:03:08;;;;;;;14.60;4.63;;;;;;;4.88;81.02;102490.41;5014875;28;20807;-63
2022/02/11 05:05:51;;;;;;;14.00;4.43;;;;;;;4.74;80.83;102499.03;5033524;28;20551;-62
2022/02/11 05:08:23;;;;;;;14.80;5.03;;;;;;;4.87;81.22;102487.91;5007823;28;20069;-62
2022/02/11 05:10:52;;;;;;;16.95;4.53;;;;;;;4.74;81.25;102490.84;5030479;28;20056;-62
2022/02/11 05:13:20;;;;;;;19.60;5.70;;;;;;;4.58;81.18;102498.59;5029631;28;20416;-63
2022/02/11 05:15:47;;;;;;;18.00;4.82;;;;;;;5.05;80.75;102490.56;5017423;28;20061;-63
2022/02/11 05:18:17;;;;;;;13.30;4.88;;;;;;;5.20;79.22;102502.72;5020186;28;20057;-63
2022/02/11 05:20:44;;;;;;;18.65;4.70;;;;;;;4.69;80.81;102507.91;5037820;28;20052;-62
2022/02/11 05:23:15;;;;;;;15.38;5.05;;;;;;;4.79;81.00;102507.34;5027218;28;20505;-62
2022/02/11 05:25:42;;;;;;;21.40;5.32;;;;;;;4.72;80.83;102510.19;5031788;28;20041;-62
2022/02/11 05:28:11;;;;;;;12.65;4.60;;;;;;;4.89;80.91;102503.00;5037919;28;20428;-62
2022/02/11 05:30:39;;;;;;;22.05;5.43;;;;;;;4.95;80.55;102514.91;5033746;28;20049;-62
2022/02/11 05:33:09;;;;;;;23.45;6.13;;;;;;;4.94;80.64;102515.94;5037157;28;20060;-62
2022/02/11 05:35:38;;;;;;;19.50;5.57;;;;;;;4.74;80.16;102518.97;5020177;28;20053;-62
2022/02/11 05:38:05;;;;;;;14.55;3.85;;;;;;;4.71;81.00;102526.78;5004642;28;20068;-62
2022/02/11 05:40:33;;;;;;;19.90;4.60;;;;;;;4.87;80.11;102529.69;5036771;28;20050;-62
2022/02/11 05:43:00;;;;;;;17.85;4.90;;;;;;;4.83;79.64;102536.69;5036414;28;20404;-62
2022/02/11 05:45:28;;;;;;;18.13;5.05;;;;;;;4.79;79.94;102523.72;5017549;28;20429;-62
2022/02/11 05:47:55;;;;;;;18.60;4.82;;;;;;;4.91;79.53;102527.34;5001588;28;20057;-62
2022/02/11 05:50:22;;;;;;;16.67;4.95;;;;;;;4.58;80.43;102535.97;5037110;28;20056;-61
2022/02/11 05:53:05;;;;;;;23.88;4.88;;;;;;;4.62;81.13;102544.53;5005758;28;20057;-62
2022/02/11 05:55:34;;;;;;;17.58;5.25;;;;;;;4.97;80.17;102551.81;5016433;28;20049;-63
2022/02/11 05:58:02;;;;;;;19.95;5.35;;;;;;;5.07;78.70;102540.34;5037057;28;20053;-62
2022/02/11 06:00:29;;;;;;;19.13;5.10;;;;;;;5.00;78.89;102547.78;5036791;28;20045;-62
2022/02/11 06:02:57;;;;;;;11.25;4.80;;;;;;;5.14;78.74;102549.28;5034368;28;20049;-62
2022/02/11 06:05:24;;;;;;;16.65;4.88;;;;;;;5.32;78.66;102569.16;5037059;28;20064;-60
2022/02/11 06:07:51;;;;;;;14.20;5.38;;;;;;;5.18;78.10;102558.66;5016503;28;20064;-62
2022/02/11 06:10:20;;;;;;;17.05;5.03;;;;;;;5.42;77.67;102568.59;5020946;28;20114;-60
2022/02/11 06:12:47;;;;;;;17.38;4.90;;;;;;;4.65;78.86;102569.47;5015252;28;20818;-63
2022/02/11 06:15:14;;;;;;;14.45;4.93;;;;;;;4.70;79.90;102568.78;5034473;28;20500;-62
2022/02/11 06:17:42;;;;;;;18.75;5.20;;;;;;;5.09;78.96;102566.34;5034674;28;20065;-60
2022/02/11 06:20:10;;;;;;;13.98;5.00;;;;;;;5.30;78.11;102565.81;5035314;28;20049;-63
2022/02/11 06:22:37;;;;;;;13.55;5.38;;;;;;;5.54;76.96;102563.97;5032769;28;20053;-61
2022/02/11 06:25:05;;;;;;;17.85;5.22;;;;;;;5.23;77.27;102567.81;5036441;28;20381;-60
2022/02/11 06:27:32;;;;;;;16.17;4.97;;;;;;;5.26;77.40;102583.75;5036532;28;20053;-61
2022/02/11 06:29:59;;;;;;;18.83;5.55;;;;;;;5.11;77.77;102582.53;5036195;28;20054;-62
2022/02/11 06:32:27;;;;;;;13.65;4.80;;;;;;;5.22;77.55;102582.56;5029363;28;20058;-62
2022/02/11 06:34:56;;;;;;;19.80;5.05;;;;;;;4.68;77.73;102587.28;5029835;28;20060;-61
2022/02/11 06:37:24;;;;;;;24.35;5.20;;;;;;;4.67;78.78;102591.09;5028171;28;20057;-62
2022/02/11 06:39:51;;;;;;;16.77;5.00;;;;;;;4.97;78.24;102589.22;5036320;28;20523;-62
2022/02/11 06:42:18;;;;;;;19.67;4.72;;;;;;;4.75;78.21;102596.22;5034565;28;20053;-63
2022/02/11 06:44:46;;;;;;;21.80;4.75;;;;;;;4.62;78.82;102605.41;5036255;28;20419;-61
2022/02/11 06:47:13;;;;;;;22.52;5.40;;;;;;;4.36;79.72;102609.25;5022944;28;20073;-61
2022/02/11 06:49:40;;;;;;;20.00;5.88;;;;;;;4.42;80.35;102616.56;5028083;28;20046;-61
2022/02/11 06:52:08;;;;;;;18.75;5.18;;;;;;;4.22;80.97;102610.47;5032352;28;20121;-63
2022/02/11 06:54:36;;;;;;;19.23;5.63;;;;;;;4.35;80.69;102604.03;5028120;28;20058;-63
2022/02/11 06:57:03;;;;;;;22.73;5.32;;;;;;;4.21;81.08;102617.00;5031738;28;20056;-62
2022/02/11 06:59:30;;;;;;;20.45;5.47;;;;;;;4.27;80.82;102618.00;5038416;28;20049;-63
2022/02/11 07:01:58;;;;;;;20.15;5.43;;;;;;;4.35;81.23;102621.25;5034112;28;20064;-61
2022/02/11 07:04:26;;;;;;;16.90;5.30;;;;;;;4.44;80.86;102632.69;5019946;28;20072;-60
2022/02/11 07:06:53;;;;;;;17.50;5.00;;;;;;;4.79;79.61;102638.38;5034339;28;20057;-61
2022/02/11 07:09:20;;;;;;;13.23;5.05;;;;;;;4.90;79.39;102651.28;5006718;28;20053;-60
2022/02/11 07:11:47;;;;;;;23.30;5.53;;;;;;;4.68;79.17;102655.50;5015991;28;20076;-61
2022/02/11 07:14:15;;;;;;;15.23;4.72;;;;;;;4.65;79.42;102654.09;5016215;28;20540;-62
2022/02/11 07:16:44;;;;;;;16.80;5.78;;;;;;;4.82;79.12;102660.59;5029408;28;20076;-63
2022/02/11 07:19:11;;;;;;;17.13;5.35;;;;;;;4.81;78.91;102674.47;5011635;28;20050;-63
2022/02/11 07:21:41;;;;;;;20.77;5.72;;;;;;;5.00;78.49;102684.34;4995197;28;20076;-62
2022/02/11 07:24:08;;;;;;;27.77;7.15;;;;;;;5.21;77.97;102686.59;5035063;28;20051;-60
2022/02/11 07:26:35;;;;;;;20.67;6.13;;;;;;;5.17;77.65;102696.28;5017938;28;20049;-62
2022/02/11 07:29:03;;;;;;;15.40;5.32;;;;;;;5.37;76.97;102694.97;5033834;28;20072;-61
2022/02/11 07:31:30;;;;;;;15.90;5.70;;;;;;;5.42;76.46;102688.84;5015124;28;20072;-62
2022/02/11 07:33:57;;;;;;;17.52;6.20;;;;;;;5.44;76.50;102703.09;5017786;28;20061;-61
2022/02/11 07:36:25;;;;;;;30.35;9.73;;;;;;;5.46;76.24;102709.13;5011914;28;20072;-62
2022/02/11 07:38:52;;;;;;;15.30;5.50;;;;;;;5.31;75.91;102715.03;5025902;28;20524;-61
2022/02/11 07:41:19;;;;;;;21.00;6.57;;;;;;;5.29;76.38;102724.50;5016595;28;20049;-63
2022/02/11 07:43:48;;;;;;;16.30;5.10;;;;;;;5.64;75.98;102722.78;5016084;28;20076;-63
2022/02/11 07:46:15;;;;;;;17.23;5.43;;;;;;;5.58;76.87;102720.94;5035175;28;20520;-63
2022/02/11 07:48:42;;;;;;;22.52;6.40;;;;;;;5.53;76.89;102718.09;5035432;28;20041;-63
2022/02/11 07:51:10;;;;;;;23.42;10.63;;;;;;;5.45;75.83;102723.88;5026683;28;20365;-61
2022/02/11 07:53:42;;;;;;;24.65;7.35;;;;;;;5.55;75.51;102726.88;5030145;28;20054;-62
2022/02/11 07:56:09;;;;;;;24.88;5.47;;;;;;;5.34;75.20;102744.63;5015561;28;20056;-63
2022/02/11 07:58:37;;;;;;;30.05;10.43;;;;;;;5.43;75.61;102743.25;5018848;28;20058;-65
2022/02/11 08:01:05;;;;;;;22.60;6.45;;;;;;;5.64;74.84;102736.44;5016245;28;20046;-62
2022/02/11 08:03:34;;;;;;;19.45;6.05;;;;;;;5.60;74.84;102741.53;5017185;28;20440;-63
2022/02/11 08:06:01;;;;;;;15.73;6.35;;;;;;;5.33;75.19;102742.13;5032156;28;20056;-61
2022/02/11 08:08:31;;;;;;;17.63;6.00;;;;;;;5.60;75.44;102743.44;5029009;28;20053;-61
2022/02/11 08:10:58;;;;;;;19.93;7.20;;;;;;;5.52;75.02;102755.53;5021811;28;20057;-62
2022/02/11 08:13:26;;;;;;;21.92;7.78;;;;;;;5.55;75.26;102759.69;5029323;28;20292;-62
2022/02/11 08:15:54;;;;;;;23.00;7.90;;;;;;;5.48;75.17;102767.13;5026277;28;20057;-61
2022/02/11 08:18:22;;;;;;;18.42;6.55;;;;;;;5.52;75.44;102763.75;5026952;28;20114;-61
2022/02/11 08:21:09;;;;;;;22.77;7.28;;;;;;;5.50;75.31;102775.94;5009988;28;20041;-61
2022/02/11 08:23:37;;;;;;;19.20;7.00;;;;;;;5.43;75.60;102780.66;5033988;28;20057;-61
2022/02/11 08:26:05;;;;;;;22.95;7.00;;;;;;;5.47;75.61;102787.34;5033624;28;20061;-63
2022/02/11 08:28:38;;;;;;;23.52;8.68;;;;;;;6.01;76.14;102789.16;4980137;28;20050;-62
2022/02/11 08:31:06;;;;;;;18.90;6.82;;;;;;;6.10;75.59;102793.25;5027380;28;20045;-64
2022/02/11 08:33:33;;;;;;;25.80;7.20;;;;;;;6.19;75.19;102791.84;5017806;28;20060;-61
2022/02/11 08:36:00;;;;;;;19.00;7.10;;;;;;;6.37;75.02;102792.59;5029636;28;20041;-61
2022/02/11 08:38:27;;;;;;;26.10;6.88;;;;;;;6.17;74.24;102797.53;5033158;28;20049;-63
2022/02/11 08:40:55;;;;;;;24.83;6.80;;;;;;;6.19;75.22;102800.88;5031046;28;20046;-64
2022/02/11 08:43:23;;;;;;;22.95;5.82;;;;;;;5.60;75.71;102801.69;5006266;28;20053;-61
2022/02/11 08:45:50;;;;;;;25.98;8.02;;;;;;;5.99;76.67;102803.06;5029423;28;20049;-63
2022/02/11 08:48:17;;;;;;;23.48;8.18;;;;;;;6.24;74.77;102809.22;5017714;28;20052;-63
2022/02/11 08:50:45;;;;;;;19.70;6.28;;;;;;;6.45;74.36;102813.34;5036503;28;20057;-64
2022/02/11 08:53:34;;;;;;;22.95;5.90;;;;;;;6.91;72.79;102812.53;5036832;28;20065;-58
2022/02/11 08:56:05;;;;;;;24.35;6.25;;;;;;;6.15;72.65;102810.63;5020810;28;20054;-60
2022/02/11 08:58:33;;;;;;;17.58;5.93;;;;;;;5.57;74.05;102809.50;5036265;28;20084;-63
2022/02/11 09:01:01;;;;;;;20.95;6.13;;;;;;;5.29;75.59;102823.72;5034661;28;20038;-57
2022/02/11 09:03:28;;;;;;;24.80;5.88;;;;;;;5.11;76.71;102828.34;5019272;28;20060;-61
2022/02/11 09:05:56;;;;;;;20.92;6.00;;;;;;;5.17;76.39;102821.94;5034108;28;20057;-57
2022/02/11 09:08:24;;;;;;;19.27;5.80;;;;;;;5.04;77.34;102830.31;5035004;28;20046;-56
2022/02/11 09:10:52;;;;;;;13.57;5.22;;;;;;;5.03;77.52;102828.59;5036382;28;20054;-57
2022/02/11 09:13:20;;;;;;;23.50;6.00;;;;;;;5.15;77.45;102830.38;5035695;28;20041;-58
2022/02/11 09:15:48;;;;;;;16.88;5.88;;;;;;;5.32;77.16;102836.91;5012959;28;20658;-58
2022/02/11 09:18:15;;;;;;;17.63;6.53;;;;;;;5.64;76.55;102843.06;5037254;28;20053;-59
2022/02/11 09:20:42;;;;;;;22.38;6.03;;;;;;;5.73;75.57;102861.66;5033630;28;20041;-57
2022/02/11 09:23:10;;;;;;;22.60;7.15;;;;;;;5.64;75.49;102862.19;5031877;28;20049;-56
2022/02/11 09:25:37;;;;;;;16.08;6.35;;;;;;;5.80;75.57;102858.84;5034704;28;20064;-61
2022/02/11 09:28:05;;;;;;;25.02;6.80;;;;;;;6.06;74.29;102860.41;5018813;28;20134;-59
2022/02/11 09:30:33;;;;;;;16.48;6.40;;;;;;;5.53;75.39;102866.53;5035123;28;20045;-63
2022/02/11 09:33:00;;;;;;;20.88;6.80;;;;;;;5.52;76.11;102869.50;5011527;28;20053;-59
2022/02/11 09:35:28;;;;;;;27.10;6.95;;;;;;;5.84;76.30;102878.41;5035778;28;20057;-56
2022/02/11 09:37:56;;;;;;;24.67;7.47;;;;;;;5.90;75.54;102875.56;5035736;28;20209;-60
2022/02/11 09:40:24;;;;;;;17.05;5.78;;;;;;;6.09;74.78;102873.63;5015235;28;20057;-59
2022/02/11 09:42:53;;;;;;;22.92;5.97;;;;;;;6.12;74.33;102874.00;5036417;28;20045;-61
2022/02/11 09:45:22;;;;;;;22.83;5.65;;;;;;;5.94;73.85;102874.06;5035327;28;20041;-59
2022/02/11 09:47:52;;;;;;;20.88;4.90;;;;;;;6.07;74.36;102871.13;5035702;28;20061;-58
2022/02/11 09:50:22;;;;;;;20.95;5.28;;;;;;;6.25;73.41;102879.31;5015639;28;20041;-60
2022/02/11 09:52:52;;;;;;;22.27;5.30;;;;;;;5.88;74.70;102887.78;5012290;28;20042;-61
2022/02/11 09:55:33;;;;;;;27.35;5.15;;;;;;;5.79;75.04;102886.44;5034130;28;20053;-60
2022/02/11 09:58:06;;;;;;;23.23;4.80;;;;;;;5.70;75.76;102891.38;5032985;28;20048;-59
2022/02/11 10:00:36;;;;;;;26.83;5.68;;;;;;;5.81;75.74;102890.59;5012706;28;20045;-59
2022/02/11 10:03:14;;;;;;;13.98;5.20;;;;;;;6.01;74.53;102893.09;4993092;28;20393;-60
2022/02/11 10:05:47;;;;;;;15.93;5.28;;;;;;;5.90;74.55;102886.50;5034960;28;20096;-59
2022/02/11 10:08:16;;;;;;;33.95;6.25;;;;;;;5.91;74.97;102890.91;5019728;28;20053;-58
2022/02/11 10:10:52;;;;;;;21.98;5.30;;;;;;;5.96;74.52;102887.50;5032240;28;20045;-60
2022/02/11 10:13:30;;;;;;;18.77;5.18;;;;;;;6.22;74.45;102895.34;5033116;28;20049;-61
2022/02/11 10:16:08;;;;;;;16.02;4.68;;;;;;;6.20;73.48;102884.66;5034875;28;20058;-61
2022/02/11 10:18:41;;;;;;;16.65;5.13;;;;;;;6.29;73.64;102896.94;5029800;28;20049;-60
2022/02/11 10:21:12;;;;;;;17.75;5.00;;;;;;;6.21;73.02;102902.72;5019387;28;20060;-60
2022/02/11 10:23:42;;;;;;;28.63;5.55;;;;;;;6.00;72.85;102899.66;5038043;28;20049;-59
2022/02/11 10:26:16;;;;;;;22.57;5.70;;;;;;;5.92;73.14;102909.00;5014236;28;20046;-61
2022/02/11 10:28:47;;;;;;;20.30;5.90;;;;;;;5.89;74.26;102912.22;5023759;28;20386;-61
2022/02/11 10:31:16;;;;;;;16.55;4.68;;;;;;;5.83;74.12;102904.91;5017629;28;20049;-59
2022/02/11 10:34:06;;;;;;;18.63;5.15;;;;;;;6.15;73.38;102908.28;5020729;28;20056;-59
2022/02/11 10:36:39;;;;;;;17.30;5.07;;;;;;;6.02;73.26;102924.84;5012675;28;20053;-63
2022/02/11 10:39:27;;;;;;;22.95;5.30;;;;;;;5.94;73.26;102917.81;4993719;28;20064;-62
2022/02/11 10:41:59;;;;;;;15.38;4.55;;;;;;;6.11;72.43;102924.31;5024622;28;20046;-64
2022/02/11 10:44:34;;;;;;;21.77;4.80;;;;;;;6.31;71.39;102918.59;5028879;28;20512;-63
2022/02/11 10:47:07;;;;;;;20.52;5.55;;;;;;;6.57;71.00;102927.25;4998039;28;20537;-63
2022/02/11 10:49:35;;;;;;;20.60;6.13;;;;;;;6.47;71.74;102918.78;5032800;28;20409;-62
2022/02/11 10:52:13;;;;;;;18.92;5.63;;;;;;;6.75;71.03;102929.94;5008666;28;20062;-62
2022/02/11 10:54:42;;;;;;;21.17;5.30;;;;;;;6.80;69.60;102921.84;5030505;28;20050;-63
2022/02/11 10:57:13;;;;;;;16.30;3.95;;;;;;;6.74;68.20;102931.00;5016034;28;20413;-58
2022/02/11 10:59:44;;;;;;;19.95;3.45;;;;;;;6.47;68.59;102928.88;5034892;28;20057;-60
2022/02/11 11:02:17;;;;;;;23.38;4.70;;;;;;;6.48;69.65;102931.41;5026173;28;20050;-62
2022/02/11 11:04:46;;;;;;;20.52;4.07;;;;;;;6.75;68.62;102934.56;5036190;28;20488;-63
2022/02/11 11:07:18;;;;;;;21.85;4.65;;;;;;;6.84;68.24;102925.78;5033636;28;20484;-59
2022/02/11 11:10:08;;;;;;;25.05;4.63;;;;;;;6.77;67.58;102927.81;5020304;28;20054;-63
2022/02/11 11:12:37;;;;;;;16.45;5.28;;;;;;;6.92;68.15;102919.16;5012500;28;20041;-62
2022/02/11 11:15:05;;;;;;;19.55;4.55;;;;;;;7.17;66.65;102919.75;5014129;28;20046;-62
2022/02/11 11:17:32;;;;;;;20.58;4.78;;;;;;;7.33;65.50;102923.69;5017422;28;20046;-60
2022/02/11 11:20:00;;;;;;;21.85;5.13;;;;;;;7.09;65.43;102919.28;5025222;28;20056;-56
2022/02/11 11:22:32;;;;;;;17.05;4.68;;;;;;;7.12;65.87;102921.53;5001995;28;20052;-64
2022/02/11 11:25:04;;;;;;;13.32;4.68;;;;;;;7.30;65.30;102919.53;5002272;28;20061;-62
2022/02/11 11:27:54;;;;;;;21.25;5.05;;;;;;;6.93;65.24;102912.59;5032353;28;20124;-62
2022/02/11 11:30:24;;;;;;;15.57;4.73;;;;;;;7.19;65.21;102917.63;5023946;28;20049;-60
2022/02/11 11:33:04;;;;;;;17.17;6.18;;;;;;;7.55;63.99;102913.81;5034172;28;20060;-60
2022/02/11 11:36:04;;;;;;;18.70;5.35;;;;;;;7.12;63.29;102916.91;5029768;28;20045;-62
2022/02/11 11:38:43;;;;;;;21.40;5.90;;;;;;;7.24;63.46;102925.13;5013791;28;20061;-60
2022/02/11 11:41:27;;;;;;;28.85;5.75;;;;;;;7.44;63.44;102931.09;5032495;28;20049;-63
2022/02/11 11:43:56;;;;;;;22.98;5.93;;;;;;;7.69;62.84;102923.44;5034881;28;20053;-62
2022/02/11 11:46:25;;;;;;;31.40;6.05;;;;;;;7.42;62.75;102930.50;5033829;28;20054;-60
2022/02/11 11:49:01;;;;;;;16.38;5.07;;;;;;;7.25;63.62;102932.28;5033792;28;20404;-57
2022/02/11 11:51:48;;;;;;;23.63;5.70;;;;;;;7.18;63.33;102921.44;5021416;28;20045;-60
2022/02/11 11:54:15;;;;;;;17.00;4.50;;;;;;;7.38;63.26;102926.56;5029732;28;20056;-64
2022/02/11 11:56:53;;;;;;;24.33;6.97;;;;;;;7.57;62.71;102922.59;5027731;28;20053;-63
2022/02/11 11:59:38;;;;;;;30.42;12.70;;;;;;;7.68;62.60;102919.88;5012980;28;20049;-63
2022/02/11 12:02:11;;;;;;;29.20;6.63;;;;;;;7.29;63.50;102920.59;5031111;28;20053;-64
2022/02/11 12:04:38;;;;;;;16.30;6.10;;;;;;;7.37;63.28;102920.25;5034250;28;20060;-63
2022/02/11 12:07:10;;;;;;;19.00;6.97;;;;;;;7.63;61.86;102903.31;5021455;28;20469;-63
2022/02/11 12:09:41;;;;;;;18.83;7.65;;;;;;;7.55;62.30;102902.84;5029015;28;20121;-64
2022/02/11 12:12:10;;;;;;;17.55;5.45;;;;;;;7.34;62.79;102907.00;5017976;28;20052;-63
2022/02/11 12:14:40;;;;;;;20.30;6.15;;;;;;;7.61;62.59;102907.34;5028160;28;20045;-64
2022/02/11 12:17:16;;;;;;;16.25;5.53;;;;;;;7.67;61.95;102909.16;5023488;28;20057;-64
2022/02/11 12:19:45;;;;;;;18.17;5.50;;;;;;;7.97;61.81;102905.13;5030822;28;20417;-63
2022/02/11 12:22:14;;;;;;;17.45;5.57;;;;;;;7.97;61.17;102898.78;5028269;28;20485;-63
2022/02/11 12:27:57;;;;;;;16.88;5.47;;;;;;;7.79;60.83;102909.97;5034095;28;20052;-63
2022/02/11 12:30:27;;;;;;;21.92;5.20;;;;;;;8.04;60.09;102904.16;5029567;28;20053;-63
2022/02/11 12:32:59;;;;;;;18.33;5.35;;;;;;;7.67;61.18;102909.97;5029336;28;20049;-63
2022/02/11 12:35:27;;;;;;;21.98;5.75;;;;;;;7.86;60.06;102896.94;5020228;28;20512;-63
2022/02/11 12:37:56;;;;;;;14.80;4.57;;;;;;;8.10;59.20;102882.06;5024078;28;20061;-62
2022/02/11 12:40:27;;;;;;;15.43;4.77;;;;;;;7.97;59.73;102896.06;5023406;28;20408;-63
2022/02/11 12:42:59;;;;;;;19.95;6.05;;;;;;;7.92;59.77;102893.22;5027134;28;20048;-64
2022/02/11 12:45:32;;;;;;;18.23;4.72;;;;;;;8.07;58.75;102882.56;5039197;28;20044;-63
2022/02/11 12:48:02;;;;;;;14.98;4.15;;;;;;;8.28;58.55;102883.81;5033926;28;20408;-65
2022/02/11 12:50:31;;;;;;;17.98;4.05;;;;;;;8.22;58.25;102882.00;5032771;28;20049;-63
2022/02/11 12:53:03;;;;;;;17.90;4.30;;;;;;;8.01;58.87;102878.03;5033785;28;20050;-65
2022/02/11 12:55:36;;;;;;;19.30;4.85;;;;;;;7.75;60.92;102879.44;5032394;28;20060;-63
2022/02/11 12:58:06;;;;;;;17.83;4.57;;;;;;;8.00;60.45;102868.16;5043168;28;20117;-63
2022/02/11 13:00:36;;;;;;;14.70;4.65;;;;;;;8.19;58.58;102874.28;5023135;28;20061;-62
2022/02/11 13:03:10;;;;;;;14.45;3.90;;;;;;;8.46;58.12;102876.19;5027755;28;20053;-63
2022/02/11 13:05:52;;;;;;;12.63;4.40;;;;;;;8.41;57.36;102869.78;5033457;28;20053;-64
2022/02/11 13:08:25;;;;;;;15.88;4.32;;;;;;;8.30;57.35;102882.47;5026838;28;20054;-64
2022/02/11 13:11:04;;;;;;;17.35;4.60;;;;;;;7.98;57.85;102882.09;5031822;28;20054;-63
2022/02/11 13:13:34;;;;;;;14.13;3.75;;;;;;;7.87;58.54;102879.38;5029229;28;20042;-63
2022/02/11 13:16:03;;;;;;;18.17;4.35;;;;;;;8.09;58.72;102874.88;5032705;28;20060;-64
2022/02/11 13:18:34;;;;;;;13.55;3.63;;;;;;;8.46;57.66;102875.34;5004566;28;20045;-64
2022/02/11 13:21:11;;;;;;;13.32;4.13;;;;;;;8.42;57.17;102872.25;5032724;28;20057;-64
2022/02/11 13:23:42;;;;;;;18.20;3.40;;;;;;;8.86;55.48;102865.91;5007976;28;20057;-63
2022/02/11 13:26:14;;;;;;;14.20;3.40;;;;;;;8.42;55.54;102869.53;5016868;28;20045;-63
2022/02/11 13:28:44;;;;;;;18.90;3.75;;;;;;;8.26;56.08;102873.09;5017579;28;20049;-63
2022/02/11 13:31:12;;;;;;;19.45;4.10;;;;;;;7.97;57.55;102872.19;5035747;28;20420;-63
2022/02/11 13:33:39;;;;;;;17.48;3.92;;;;;;;8.20;57.24;102876.75;5021849;28;20054;-63
2022/02/11 13:36:12;;;;;;;19.08;4.20;;;;;;;8.42;56.50;102860.47;5015279;28;20041;-63
2022/02/11 13:38:47;;;;;;;19.38;4.38;;;;;;;8.46;56.48;102873.44;5020062;28;20053;-64
2022/02/11 13:41:15;;;;;;;13.10;3.67;;;;;;;8.60;56.34;102862.97;5026330;28;20054;-64
2022/02/11 13:43:52;;;;;;;12.00;3.22;;;;;;;8.72;55.17;102861.81;5033020;28;20052;-64
2022/02/11 13:46:41;;;;;;;18.42;4.05;;;;;;;8.13;55.95;102867.00;5027243;28;20421;-63
2022/02/11 13:49:12;;;;;;;14.77;3.90;;;;;;;7.92;56.72;102857.53;5034106;28;20053;-63
2022/02/11 13:51:40;;;;;;;18.92;4.57;;;;;;;7.95;57.84;102860.63;5027120;28;20057;-64
2022/02/11 13:54:16;;;;;;;12.82;3.63;;;;;;;7.96;58.12;102856.81;5034757;28;20053;-63
2022/02/11 13:56:46;;;;;;;15.27;4.05;;;;;;;7.97;57.88;102863.13;5004298;28;20397;-63
2022/02/11 13:59:23;;;;;;;18.20;3.50;;;;;;;8.57;56.36;102861.56;5016647;28;20054;-63
2022/02/11 14:01:51;;;;;;;13.07;3.50;;;;;;;8.72;55.72;102856.34;5012438;28;20049;-64
2022/02/11 14:04:20;;;;;;;14.10;3.58;;;;;;;8.86;55.46;102849.44;5016240;28;20429;-64
2022/02/11 14:06:53;;;;;;;14.03;2.87;;;;;;;9.19;54.67;102839.50;5016138;28;20076;-63
2022/02/11 14:09:39;;;;;;;18.15;3.60;;;;;;;9.42;54.20;102834.59;5028202;28;20413;-63
2022/02/11 14:12:13;;;;;;;15.95;4.45;;;;;;;9.10;54.08;102841.81;5017548;28;20493;-62
2022/02/11 14:14:54;;;;;;;15.57;3.55;;;;;;;9.26;53.40;102837.41;5031039;28;20053;-62
2022/02/11 14:17:21;;;;;;;15.40;3.85;;;;;;;9.57;53.03;102837.53;5019559;28;20053;-62
2022/02/11 14:19:49;;;;;;;13.52;3.45;;;;;;;9.58;52.78;102830.13;5033187;28;20053;-63
2022/02/11 14:22:17;;;;;;;19.90;3.97;;;;;;;9.83;52.20;102827.69;5032266;28;20079;-62
2022/02/11 14:24:44;;;;;;;14.05;3.30;;;;;;;9.62;51.85;102832.13;5039886;28;20053;-62
2022/02/11 14:27:12;;;;;;;14.65;3.90;;;;;;;9.51;52.56;102833.06;5024763;28;20049;-62
2022/02/11 14:29:39;;;;;;;16.90;3.65;;;;;;;9.26;53.08;102834.66;5028216;28;20052;-63
2022/02/11 14:32:07;;;;;;;18.42;3.42;;;;;;;8.75;53.88;102844.03;5024714;28;20049;-63
2022/02/11 14:34:34;;;;;;;16.23;3.30;;;;;;;8.95;53.13;102842.44;5029358;28;20034;-62
2022/02/11 14:37:02;;;;;;;13.90;3.55;;;;;;;8.81;52.61;102840.25;5038080;28;20063;-62
2022/02/11 14:39:30;;;;;;;10.30;3.00;;;;;;;8.84;51.96;102837.84;5035326;28;20038;-63
2022/02/11 14:42:01;;;;;;;10.02;3.22;;;;;;;8.90;52.29;102841.50;5021782;28;20489;-63
2022/02/11 14:44:30;;;;;;;16.95;3.72;;;;;;;8.89;52.30;102843.41;5031418;28;20037;-63
2022/02/11 14:46:59;;;;;;;15.95;3.92;;;;;;;8.75;52.14;102839.34;5035531;28;20061;-63
2022/02/11 14:49:28;;;;;;;12.48;3.10;;;;;;;8.92;52.03;102840.19;5033801;28;20068;-64
2022/02/11 14:51:58;;;;;;;12.85;3.05;;;;;;;8.96;50.96;102841.34;5023282;28;20057;-63
2022/02/11 14:54:26;;;;;;;17.17;4.00;;;;;;;9.12;51.45;102838.84;5035177;28;20045;-62
2022/02/11 14:56:55;;;;;;;15.50;3.17;;;;;;;9.18;51.52;102835.06;5027978;28;20050;-62
2022/02/11 14:59:23;;;;;;;19.00;4.30;;;;;;;9.38;51.37;102838.94;5031336;28;20049;-62
2022/02/11 15:01:52;;;;;;;16.73;3.58;;;;;;;9.30;51.15;102842.13;5030465;28;20056;-62
2022/02/11 15:04:20;;;;;;;11.35;3.45;;;;;;;9.28;51.60;102840.69;5028302;28;20064;-62
2022/02/11 15:06:50;;;;;;;15.70;5.70;;;;;;;9.24;51.71;102834.88;5027466;28;20054;-62
2022/02/11 15:09:20;;;;;;;17.52;4.38;;;;;;;9.34;51.88;102829.53;5025297;28;20074;-62
2022/02/11 15:11:47;;;;;;;21.52;3.75;;;;;;;9.24;52.53;102834.88;5025395;28;20045;-64
2022/02/11 15:14:22;;;;;;;16.10;3.55;;;;;;;9.17;52.02;102836.16;5029086;28;20054;-63
2022/02/11 15:16:50;;;;;;;22.45;4.47;;;;;;;9.00;52.28;102837.00;5034192;28;20386;-62
2022/02/11 15:19:17;;;;;;;11.77;3.47;;;;;;;8.85;52.66;102836.78;5033751;28;20057;-62
2022/02/11 15:21:46;;;;;;;13.57;3.33;;;;;;;8.75;52.32;102833.03;5034227;28;20053;-62
2022/02/11 15:24:14;;;;;;;13.10;3.65;;;;;;;8.85;52.67;102836.78;5035291;28;20428;-62
2022/02/11 15:26:41;;;;;;;16.90;3.83;;;;;;;8.89;52.50;102829.69;5023826;28;20054;-62
2022/02/11 15:29:09;;;;;;;11.52;3.30;;;;;;;8.78;52.22;102819.63;5022360;28;20045;-64
2022/02/11 15:31:38;;;;;;;17.38;3.13;;;;;;;8.94;52.38;102823.44;5024551;28;20054;-65